ADDS TAF Data INFO
IDs: Format: Raw Decoded Include METARs

Data at: 2218 UTC 23 May 2018

KTLH 232022Z 2320/2418 18010KT 6SM -SHRA VCTS BKN035CB
  TEMPO 2320/2323 27015G25KT 3SM TSRA SCT015 BKN020CB
  FM240300 16004KT P6SM SCT030
  FM240700 VRB02KT 2SM BR SCT008
  FM241400 25007KT P6SM VCFG SCT008